createdAt,value
2022-12-04T00:01:57.441Z,4.19
2022-12-04T00:04:01.171Z,3.90
2022-12-04T00:06:09.184Z,3.97
2022-12-04T00:08:11.507Z,3.80
2022-12-04T00:10:14.078Z,3.88
2022-12-04T00:12:16.315Z,3.92
2022-12-04T00:14:18.854Z,3.71
2022-12-04T00:16:24.478Z,3.69
2022-12-04T00:18:27.468Z,3.61
2022-12-04T00:20:30.006Z,3.75
2022-12-04T00:22:33.353Z,3.71
2022-12-04T00:24:35.575Z,3.78
2022-12-04T00:26:37.828Z,3.73
2022-12-04T00:28:40.591Z,3.75
2022-12-04T00:30:44.194Z,3.71
2022-12-04T00:32:46.722Z,3.81
2022-12-04T00:34:52.434Z,3.83
2022-12-04T00:36:54.669Z,3.77
2022-12-04T00:38:59.768Z,3.80
2022-12-04T00:41:02.558Z,3.67
2022-12-04T00:43:04.768Z,3.79
2022-12-04T00:45:07.330Z,3.77
2022-12-04T00:47:10.180Z,3.73
2022-12-04T00:49:12.438Z,3.73
2022-12-04T00:51:17.529Z,3.72
2022-12-04T00:53:20.610Z,3.78
2022-12-04T00:55:22.795Z,3.70
2022-12-04T00:57:24.989Z,3.62
2022-12-04T00:59:27.760Z,3.60
2022-12-04T01:01:30.817Z,3.79
2022-12-04T01:03:33.662Z,3.66
2022-12-04T01:05:44.185Z,3.67
2022-12-04T01:07:46.487Z,3.55
2022-12-04T01:09:48.759Z,3.57
2022-12-04T01:11:51.256Z,3.48
2022-12-04T01:13:54.011Z,3.48
2022-12-04T01:15:56.383Z,3.69
2022-12-04T01:17:58.996Z,3.65
2022-12-04T01:20:01.236Z,3.79
2022-12-04T01:22:04.116Z,3.67
2022-12-04T01:24:07.543Z,3.67
2022-12-04T01:26:10.217Z,3.88
2022-12-04T01:28:12.425Z,3.82
2022-12-04T01:30:15.048Z,3.94
2022-12-04T01:32:17.456Z,4.01
2022-12-04T01:34:19.757Z,3.95
2022-12-04T01:36:25.841Z,3.88
2022-12-04T01:38:28.702Z,3.89
2022-12-04T01:40:30.904Z,4.07
2022-12-04T01:42:34.605Z,4.07
2022-12-04T01:45:15.140Z,4.09
2022-12-04T01:47:17.336Z,4.25
2022-12-04T01:49:25.569Z,4.03
2022-12-04T01:51:35.862Z,4.18
2022-12-04T01:53:41.705Z,3.88
2022-12-04T01:55:45.238Z,3.91
2022-12-04T01:57:47.594Z,3.92
2022-12-04T01:59:50.083Z,3.97
2022-12-04T02:02:09.671Z,3.95
2022-12-04T02:04:12.493Z,3.90
2022-12-04T09:49:47.479Z,5.57
2022-12-04T09:51:52.802Z,5.74
2022-12-04T09:54:00.794Z,5.90
2022-12-04T09:56:07.401Z,5.90
2022-12-04T09:58:15.081Z,5.70
2022-12-04T10:00:20.126Z,5.78
2022-12-04T10:02:37.124Z,5.69
2022-12-04T10:04:40.030Z,5.78
2022-12-04T10:06:55.830Z,6.11
2022-12-04T10:09:19.273Z,6.26
2022-12-04T10:11:36.474Z,6.04
2022-12-04T10:14:12.937Z,6.24
2022-12-04T10:16:29.092Z,6.39
2022-12-04T10:18:51.097Z,6.28
2022-12-04T10:21:09.758Z,6.42
2022-12-04T10:23:21.862Z,6.37
2022-12-04T10:25:26.713Z,6.59
2022-12-04T10:27:41.488Z,6.69
2022-12-04T10:29:49.428Z,6.75
2022-12-04T10:31:55.722Z,6.83
2022-12-04T10:34:12.113Z,7.09
2022-12-04T10:36:21.275Z,6.92
2022-12-04T10:38:40.302Z,7.15
2022-12-04T10:40:48.992Z,7.28
2022-12-04T10:43:02.347Z,7.11
2022-12-04T10:45:06.369Z,7.09
2022-12-04T10:47:12.566Z,7.24
2022-12-04T10:49:26.261Z,7.21
2022-12-04T10:51:35.659Z,7.05
2022-12-04T10:53:38.113Z,7.27
2022-12-04T10:55:41.018Z,7.49
2022-12-04T10:57:45.865Z,7.73
2022-12-04T10:59:49.435Z,7.69
2022-12-04T11:02:04.642Z,7.52
2022-12-04T11:04:25.328Z,7.36
2022-12-04T11:06:28.376Z,7.94
2022-12-04T11:08:41.371Z,8.20
2022-12-04T11:10:44.648Z,8.65
2022-12-04T11:13:12.766Z,8.71
2022-12-04T11:15:16.218Z,9.18
2022-12-04T11:17:20.032Z,9.91
2022-12-04T11:19:28.810Z,10.57
2022-12-04T11:21:32.487Z,10.91
2022-12-04T11:23:43.784Z,11.14
2022-12-04T11:25:50.127Z,11.29
2022-12-04T11:27:56.169Z,11.31
2022-12-04T11:30:09.067Z,10.89
2022-12-04T11:32:23.926Z,10.37
2022-12-04T11:34:39.015Z,10.60
2022-12-04T11:36:42.599Z,10.98
2022-12-04T11:38:45.522Z,11.67
2022-12-04T11:40:57.511Z,11.86
2022-12-04T11:43:05.515Z,12.09
2022-12-04T11:45:22.938Z,11.02
2022-12-04T11:47:28.950Z,11.29
2022-12-04T11:49:33.084Z,11.13
2022-12-04T11:51:59.622Z,11.31
2022-12-04T11:54:20.934Z,10.68
2022-12-04T11:56:35.656Z,11.54
2022-12-04T11:59:04.040Z,11.46
2022-12-04T12:01:39.726Z,10.89
2022-12-04T12:04:05.762Z,10.55
2022-12-04T12:06:28.977Z,10.15
2022-12-04T12:09:05.437Z,10.59
2022-12-04T12:11:13.862Z,10.50
2022-12-04T12:13:33.300Z,10.06
2022-12-04T12:15:44.708Z,9.92
2022-12-04T12:18:20.811Z,10.44
2022-12-04T12:20:33.370Z,10.08
2022-12-04T12:22:53.945Z,10.00
2022-12-04T12:25:21.085Z,10.32
2022-12-04T12:27:50.533Z,10.00
2022-12-04T12:30:08.823Z,10.04
2022-12-04T12:32:18.382Z,10.24
2022-12-04T12:34:41.277Z,10.11
2022-12-04T12:36:47.595Z,10.17
2022-12-04T12:39:15.714Z,9.54
2022-12-04T12:41:25.411Z,9.55
2022-12-04T12:43:31.620Z,9.54
2022-12-04T12:45:40.307Z,9.55
2022-12-04T12:47:48.358Z,9.56
2022-12-04T12:50:24.188Z,9.67
2022-12-04T12:52:43.481Z,9.91
2022-12-04T12:55:04.063Z,9.80
2022-12-04T12:57:14.422Z,9.63
2022-12-04T12:59:22.342Z,9.88
2022-12-04T13:01:50.240Z,9.70
2022-12-04T13:04:02.339Z,9.74
2022-12-04T13:06:12.079Z,9.22
2022-12-04T13:08:18.094Z,9.31
2022-12-04T13:10:24.233Z,9.30
2022-12-04T13:12:27.298Z,9.41
2022-12-04T13:14:29.640Z,9.48
2022-12-04T13:16:52.228Z,9.42
2022-12-04T13:19:25.214Z,9.38
2022-12-04T13:21:40.158Z,9.39
2022-12-04T13:24:19.832Z,9.10
2022-12-04T13:26:28.371Z,8.97
2022-12-04T13:28:47.581Z,9.06
2022-12-04T13:31:06.813Z,8.85
2022-12-04T13:33:39.100Z,8.57
2022-12-04T13:35:47.287Z,8.54
2022-12-04T13:37:58.230Z,8.61
2022-12-04T13:40:27.355Z,8.67
2022-12-04T13:42:30.103Z,8.73
2022-12-04T13:44:34.298Z,9.10
2022-12-04T13:46:40.422Z,9.05
2022-12-04T13:48:43.304Z,8.99
2022-12-04T13:50:45.626Z,8.86
2022-12-04T13:52:49.417Z,8.90
2022-12-04T13:54:59.910Z,8.85
2022-12-04T13:57:17.333Z,8.89
2022-12-04T13:59:32.244Z,8.69
2022-12-04T14:01:40.117Z,8.69
2022-12-04T14:03:49.737Z,8.57
2022-12-04T14:05:52.790Z,8.47
2022-12-04T14:08:07.357Z,8.56
2022-12-04T14:10:14.096Z,8.32
2022-12-04T14:12:17.827Z,8.81
2022-12-04T14:14:29.214Z,8.78
2022-12-04T14:16:40.864Z,8.49
2022-12-04T14:18:52.599Z,8.46
2022-12-04T14:21:02.441Z,8.52
2022-12-04T14:23:20.048Z,8.41
2022-12-04T14:25:32.909Z,8.40
2022-12-04T14:27:42.345Z,8.19
2022-12-04T14:29:52.918Z,8.10
2022-12-04T14:31:58.128Z,8.06
2022-12-04T14:34:04.487Z,7.97
2022-12-04T14:36:17.245Z,7.81
2022-12-04T14:38:23.104Z,7.83
2022-12-04T14:40:28.467Z,7.81
2022-12-04T14:42:38.731Z,7.79
2022-12-04T14:44:42.501Z,7.73
2022-12-04T14:46:50.224Z,7.69
2022-12-04T14:49:04.868Z,7.64
2022-12-04T14:51:27.982Z,7.71
2022-12-04T14:53:45.002Z,7.81
2022-12-04T14:55:56.901Z,7.76
2022-12-04T14:58:21.306Z,7.72
2022-12-04T15:00:25.760Z,7.76
2022-12-04T15:02:39.069Z,7.68
2022-12-04T15:04:46.511Z,7.65
2022-12-04T15:06:59.700Z,7.67
2022-12-04T15:09:27.242Z,7.69
2022-12-04T15:11:48.449Z,7.72
2022-12-04T15:13:51.023Z,7.77
2022-12-04T15:15:55.381Z,7.72
2022-12-04T15:17:59.136Z,7.81
2022-12-04T15:20:21.979Z,7.76
2022-12-04T15:22:29.380Z,7.85
2022-12-04T15:24:31.752Z,7.74
2022-12-04T15:26:34.118Z,7.73
2022-12-04T15:28:49.475Z,7.68
2022-12-04T15:30:54.555Z,7.79
2022-12-04T15:32:58.281Z,7.73
2022-12-04T15:35:05.886Z,7.56
2022-12-04T15:37:29.763Z,7.64
2022-12-04T15:39:35.837Z,7.72
2022-12-04T15:41:39.088Z,7.59
2022-12-04T15:43:44.504Z,7.59
2022-12-04T15:45:46.947Z,7.63
2022-12-04T15:47:56.271Z,7.71
2022-12-04T15:50:13.974Z,7.75
2022-12-04T15:52:20.282Z,7.75
2022-12-04T15:54:25.765Z,7.69
2022-12-04T15:56:29.093Z,7.74
2022-12-04T15:58:38.565Z,7.71
2022-12-04T16:00:42.902Z,7.54
2022-12-04T16:02:45.842Z,7.60
2022-12-04T16:04:48.641Z,7.58
2022-12-04T16:06:53.938Z,7.58
2022-12-04T16:09:13.362Z,7.46
2022-12-04T16:11:21.683Z,7.60
2022-12-04T16:13:30.896Z,7.46
2022-12-04T16:15:39.757Z,7.46
2022-12-04T16:17:42.973Z,7.37
2022-12-04T16:19:46.382Z,7.28
2022-12-04T16:21:50.031Z,7.33
2022-12-04T16:23:52.709Z,7.41
2022-12-04T16:25:56.364Z,7.25
2022-12-04T16:28:00.336Z,7.21
2022-12-04T16:30:03.223Z,7.29
2022-12-04T16:32:06.453Z,7.35
2022-12-04T16:34:12.379Z,7.27
2022-12-04T16:36:15.158Z,7.34
2022-12-04T16:38:19.325Z,7.36
2022-12-04T16:40:22.468Z,7.37
2022-12-04T16:42:28.931Z,7.05
2022-12-04T16:44:31.692Z,7.24
2022-12-04T16:46:34.882Z,7.08
2022-12-04T16:48:38.197Z,7.22
2022-12-04T16:50:40.533Z,7.24
2022-12-04T16:52:43.884Z,7.19
2022-12-04T16:54:48.045Z,7.23
2022-12-04T16:56:50.838Z,7.32
2022-12-04T16:58:53.978Z,7.25
2022-12-04T17:00:57.217Z,7.18
2022-12-04T17:03:02.834Z,7.36
2022-12-04T17:05:06.318Z,7.32
2022-12-04T17:07:16.979Z,7.16
2022-12-04T17:09:19.882Z,7.21
2022-12-04T17:11:23.029Z,7.25
2022-12-04T17:13:25.845Z,7.30
2022-12-04T17:15:29.679Z,7.29
2022-12-04T17:17:32.959Z,7.34
2022-12-04T17:19:35.682Z,7.41
2022-12-04T17:21:39.504Z,7.46
2022-12-04T17:23:42.577Z,7.32
2022-12-04T17:25:45.418Z,7.22
2022-12-04T17:27:48.681Z,7.31
2022-12-04T17:29:52.252Z,7.41
2022-12-04T17:31:54.867Z,7.25
2022-12-04T17:33:59.049Z,7.05
2022-12-04T17:36:04.215Z,7.15
2022-12-04T17:38:06.584Z,7.13
2022-12-04T17:40:11.183Z,7.16
2022-12-04T17:42:16.942Z,7.34
2022-12-04T17:44:19.350Z,7.18
2022-12-04T17:46:24.905Z,7.23
2022-12-04T17:48:30.165Z,7.26
2022-12-04T17:50:32.944Z,7.23
2022-12-04T17:52:35.593Z,7.46
2022-12-04T17:54:38.408Z,7.31
2022-12-04T17:56:47.471Z,7.28
2022-12-04T17:58:52.117Z,7.22
2022-12-04T18:00:58.637Z,7.28
2022-12-04T18:03:01.710Z,7.15
2022-12-04T18:05:07.388Z,7.21
2022-12-04T18:07:10.456Z,7.16
2022-12-04T18:09:15.984Z,7.21
2022-12-04T18:11:21.085Z,7.29
2022-12-04T18:13:24.070Z,7.14
2022-12-04T18:15:27.118Z,7.01
2022-12-04T18:17:29.461Z,7.02
2022-12-04T18:19:32.504Z,7.05
2022-12-04T18:21:35.630Z,7.26
2022-12-04T18:23:44.689Z,7.30
2022-12-04T18:25:58.199Z,7.23
2022-12-04T18:28:01.580Z,7.12
2022-12-04T18:30:04.574Z,7.24
2022-12-04T18:32:07.725Z,7.14
2022-12-04T18:34:11.421Z,7.15
2022-12-04T18:36:20.974Z,7.02
2022-12-04T18:38:25.968Z,6.86
2022-12-04T18:40:29.065Z,6.87
2022-12-04T18:42:31.719Z,6.84
2022-12-04T18:44:37.585Z,6.86
2022-12-04T18:46:41.418Z,6.85
2022-12-04T18:48:48.733Z,6.79
2022-12-04T18:50:51.715Z,6.70
2022-12-04T18:52:59.934Z,6.50
2022-12-04T18:55:04.060Z,6.70
2022-12-04T18:57:06.877Z,6.70
2022-12-04T18:59:29.359Z,6.61
2022-12-04T19:01:35.118Z,6.73
2022-12-04T19:03:39.149Z,6.79
2022-12-04T19:05:51.368Z,6.83
2022-12-04T19:07:54.584Z,6.88
2022-12-04T19:10:13.261Z,6.91
2022-12-04T19:12:17.549Z,6.94
2022-12-04T19:14:23.672Z,6.86
2022-12-04T19:16:27.383Z,6.94
2022-12-04T19:18:31.121Z,6.93
2022-12-04T19:20:34.003Z,6.87
2022-12-04T19:22:38.100Z,6.90
2022-12-04T19:24:43.580Z,6.71
2022-12-04T19:26:47.793Z,6.64
2022-12-04T19:28:52.458Z,6.71
2022-12-04T19:30:56.492Z,6.62
2022-12-04T19:33:02.217Z,6.54
2022-12-04T19:35:07.378Z,6.68
2022-12-04T19:37:10.475Z,6.70
2022-12-04T19:39:14.015Z,6.55
2022-12-04T19:41:22.669Z,6.52
2022-12-04T19:43:25.639Z,6.55
2022-12-04T19:45:28.526Z,6.50
2022-12-04T19:47:32.366Z,6.58
2022-12-04T19:49:36.531Z,6.67
2022-12-04T19:51:40.965Z,6.62
2022-12-04T19:53:45.496Z,6.52
2022-12-04T19:55:48.539Z,6.62
2022-12-04T19:57:51.463Z,6.60
2022-12-04T19:59:54.270Z,6.74
2022-12-04T20:01:58.055Z,6.54
2022-12-04T20:04:05.166Z,6.52
2022-12-04T20:06:14.681Z,6.71
2022-12-04T20:08:17.897Z,6.74
2022-12-04T20:10:21.451Z,6.73
2022-12-04T20:12:25.030Z,6.56
2022-12-04T20:14:28.031Z,6.66
2022-12-04T20:16:33.030Z,6.51
2022-12-04T20:18:38.270Z,6.39
2022-12-04T20:20:43.455Z,6.41
2022-12-04T20:22:46.923Z,6.29
2022-12-04T20:24:49.333Z,6.33
2022-12-04T20:26:52.181Z,6.32
2022-12-04T20:28:58.816Z,6.24
2022-12-04T20:31:02.347Z,6.35
2022-12-04T20:33:05.647Z,6.25
2022-12-04T20:35:11.114Z,6.44
2022-12-04T20:37:13.955Z,6.26
2022-12-04T20:39:18.764Z,6.31
2022-12-04T20:41:22.457Z,6.19
2022-12-04T20:43:25.608Z,6.24
2022-12-04T20:45:30.535Z,6.06
2022-12-04T20:47:35.631Z,6.06
2022-12-04T20:49:38.451Z,6.00
2022-12-04T20:51:42.185Z,6.20
2022-12-04T20:53:47.386Z,6.04
2022-12-04T20:55:54.703Z,6.11
2022-12-04T20:57:58.172Z,6.22
2022-12-04T21:00:02.951Z,6.24
2022-12-04T21:02:05.718Z,6.28
2022-12-04T21:04:08.443Z,6.29
2022-12-04T21:06:18.640Z,6.20
2022-12-04T21:08:41.013Z,6.18
2022-12-04T21:10:43.695Z,6.13
2022-12-04T21:13:05.369Z,6.07
2022-12-04T21:15:27.846Z,6.15
2022-12-04T21:17:30.795Z,6.15
2022-12-04T21:19:33.769Z,6.18
2022-12-04T21:21:36.829Z,6.16
2022-12-04T21:23:39.338Z,6.05
2022-12-04T21:25:41.816Z,6.12
2022-12-04T21:27:44.525Z,6.11
2022-12-04T21:29:46.799Z,6.03
2022-12-04T21:31:49.449Z,6.13
2022-12-04T21:33:51.738Z,6.04
2022-12-04T21:35:54.278Z,6.12
2022-12-04T21:37:56.846Z,6.09
2022-12-04T21:39:59.941Z,6.07
2022-12-04T21:42:21.256Z,6.09
2022-12-04T21:44:23.752Z,6.04
2022-12-04T21:46:26.050Z,5.93
2022-12-04T21:48:28.920Z,5.90
2022-12-04T21:50:31.404Z,6.05
2022-12-04T21:52:33.931Z,6.16
2022-12-04T21:54:36.215Z,6.06
2022-12-04T21:56:38.719Z,5.93
2022-12-04T21:58:40.991Z,5.92
2022-12-04T22:00:43.230Z,5.86
2022-12-04T22:02:45.917Z,5.91
2022-12-04T22:04:48.477Z,5.84
2022-12-04T22:06:51.013Z,5.73
2022-12-04T22:08:54.233Z,5.79
2022-12-04T22:10:56.502Z,5.79
2022-12-04T22:12:58.950Z,5.96
2022-12-04T22:15:01.498Z,5.81
2022-12-04T22:17:03.795Z,5.81
2022-12-04T22:19:06.363Z,5.87
2022-12-04T22:21:11.706Z,5.75
2022-12-04T22:23:13.937Z,5.94
2022-12-04T22:25:16.553Z,5.78
2022-12-04T22:27:19.036Z,5.92
2022-12-04T22:29:51.560Z,5.92
2022-12-04T22:31:43.760Z,5.98
2022-12-04T22:33:48.716Z,6.04
2022-12-04T22:35:50.945Z,5.82
2022-12-04T22:37:53.237Z,5.93
2022-12-04T22:39:56.469Z,6.02
2022-12-04T22:41:58.930Z,5.89
2022-12-04T22:44:01.190Z,5.73
2022-12-04T22:46:04.256Z,5.84
2022-12-04T22:48:06.585Z,5.62
2022-12-04T22:50:09.732Z,5.55
2022-12-04T22:52:12.240Z,5.50
2022-12-04T22:54:14.989Z,5.74
2022-12-04T22:56:26.508Z,5.65
2022-12-04T22:58:28.971Z,5.59
2022-12-04T23:00:31.169Z,5.64
2022-12-04T23:02:33.415Z,5.67
2022-12-04T23:04:35.975Z,5.67
2022-12-04T23:06:38.630Z,5.78
2022-12-04T23:08:42.681Z,5.78
2022-12-04T23:10:45.315Z,5.71
2022-12-04T23:12:47.540Z,5.72
2022-12-04T23:14:49.765Z,5.57
2022-12-04T23:16:52.323Z,5.74
2022-12-04T23:18:54.937Z,5.61
2022-12-04T23:21:05.988Z,5.67
2022-12-04T23:23:08.507Z,5.71
2022-12-04T23:25:10.833Z,5.47
2022-12-04T23:27:13.060Z,5.51
2022-12-04T23:29:44.821Z,5.50
2022-12-04T23:31:37.825Z,5.38
2022-12-04T23:33:41.050Z,5.31
2022-12-04T23:35:43.558Z,5.39
2022-12-04T23:37:45.780Z,5.51
2022-12-04T23:39:48.106Z,5.33
2022-12-04T23:41:50.652Z,5.43
2022-12-04T23:43:54.252Z,5.67
2022-12-04T23:45:56.549Z,5.65
2022-12-04T23:47:59.132Z,5.54
2022-12-04T23:50:02.317Z,5.54
2022-12-04T23:52:04.876Z,5.43
2022-12-04T23:54:07.429Z,5.46
